createdAt,value
2022-08-18T00:01:05.814Z,76.45
2022-08-18T00:03:56.431Z,80.28
2022-08-18T00:08:46.552Z,83.32
2022-08-18T00:11:13.481Z,90.90
2022-08-18T00:13:40.263Z,93.18
2022-08-18T00:16:07.183Z,88.78
2022-08-18T00:18:33.939Z,93.07
2022-08-18T00:21:02.217Z,98.32
2022-08-18T00:23:32.363Z,104.68
2022-08-18T00:26:00.172Z,92.22
2022-08-18T00:28:27.094Z,91.70
2022-08-18T00:30:54.451Z,105.78
2022-08-18T00:35:48.913Z,106.97
2022-08-18T00:40:54.305Z,104.13
2022-08-18T00:43:47.488Z,112.78
2022-08-18T00:46:20.896Z,107.95
2022-08-18T00:48:49.389Z,116.38
2022-08-18T00:51:34.195Z,117.65
2022-08-18T00:54:06.299Z,110.65
2022-08-18T00:56:43.788Z,111.72
2022-08-18T00:59:26.572Z,111.30
2022-08-18T01:01:56.424Z,110.38
2022-08-18T01:04:27.999Z,108.90
2022-08-18T01:07:00.510Z,109.18
2022-08-18T01:09:27.876Z,104.70
2022-08-18T01:11:56.296Z,112.95
2022-08-18T01:14:23.327Z,110.38
2022-08-18T01:17:09.920Z,111.93
2022-08-18T01:19:56.431Z,116.80
2022-08-18T01:22:48.634Z,124.25
2022-08-18T01:25:40.086Z,119.22
2022-08-18T01:28:07.076Z,120.68
2022-08-18T01:30:46.735Z,123.25
2022-08-18T01:33:13.501Z,114.65
2022-08-18T01:35:42.774Z,123.38
2022-08-18T01:38:09.606Z,128.50
2022-08-18T01:41:25.163Z,122.47
2022-08-18T01:43:23.187Z,138.57
2022-08-18T01:45:49.906Z,129.95
2022-08-18T01:48:17.037Z,124.75
2022-08-18T01:50:45.539Z,134.35
2022-08-18T01:53:12.539Z,121.47
2022-08-18T01:55:44.377Z,118.97
2022-08-18T01:58:12.146Z,123.82
2022-08-18T02:00:39.850Z,125.60
2022-08-18T02:03:09.323Z,125.88
2022-08-18T02:05:50.922Z,126.82
2022-08-18T02:08:17.935Z,133.93
2022-08-18T02:10:44.714Z,127.40
2022-08-18T02:13:11.732Z,130.50
2022-08-18T02:15:38.845Z,134.32
2022-08-18T02:18:28.574Z,134.23
2022-08-18T02:21:19.215Z,128.73
2022-08-18T02:23:53.150Z,133.60
2022-08-18T02:26:21.142Z,143.45
2022-08-18T02:28:47.898Z,145.10
2022-08-18T02:31:18.106Z,140.02
2022-08-18T02:33:51.969Z,133.23
2022-08-18T02:36:20.421Z,134.75
2022-08-18T02:38:54.772Z,136.63
2022-08-18T02:41:29.663Z,123.55
2022-08-18T02:43:57.838Z,130.00
2022-08-18T02:46:25.061Z,127.18
2022-08-18T02:48:57.868Z,131.85
2022-08-18T02:51:25.745Z,129.93
2022-08-18T02:53:53.438Z,138.23
2022-08-18T02:56:41.542Z,117.43
2022-08-18T02:59:13.190Z,132.85
2022-08-18T03:01:43.192Z,138.88
2022-08-18T03:04:14.117Z,135.07
2022-08-18T03:06:41.325Z,131.68
2022-08-18T03:09:10.346Z,139.65
2022-08-18T03:11:38.356Z,131.43
2022-08-18T03:14:06.433Z,144.40
2022-08-18T03:16:40.463Z,123.55
2022-08-18T03:19:20.115Z,130.57
2022-08-18T03:21:47.920Z,130.27
2022-08-18T03:24:19.673Z,137.35
2022-08-18T03:26:51.144Z,131.88
2022-08-18T03:29:18.000Z,134.50
2022-08-18T03:31:45.595Z,135.25
2022-08-18T03:34:12.786Z,124.43
2022-08-18T03:36:40.316Z,133.00
2022-08-18T03:39:10.357Z,130.13
2022-08-18T03:41:44.094Z,132.05
2022-08-18T03:44:27.792Z,140.10
2022-08-18T03:46:54.569Z,132.98
2022-08-18T03:49:21.407Z,151.02
2022-08-18T03:51:48.895Z,135.68
2022-08-18T03:54:17.771Z,134.05
2022-08-18T03:56:47.046Z,149.27
2022-08-18T03:59:17.962Z,139.07
2022-08-18T04:01:46.269Z,136.90
2022-08-18T04:04:18.984Z,137.43
2022-08-18T04:06:55.887Z,142.15
2022-08-18T04:09:24.720Z,151.95
2022-08-18T04:11:52.531Z,143.02
2022-08-18T04:14:21.765Z,142.13
2022-08-18T04:16:49.212Z,140.95
2022-08-18T04:19:26.903Z,152.90
2022-08-18T04:21:57.190Z,141.88
2022-08-18T04:24:25.737Z,143.90
2022-08-18T04:26:52.533Z,156.27
2022-08-18T04:29:21.293Z,155.43
2022-08-18T04:31:50.243Z,154.63
2022-08-18T04:34:18.522Z,140.13
2022-08-18T04:36:45.251Z,158.02
2022-08-18T04:39:13.563Z,141.68
2022-08-18T04:41:43.364Z,131.02
2022-08-18T04:44:12.076Z,137.65
2022-08-18T04:46:44.438Z,148.73
2022-08-18T04:49:12.178Z,143.90
2022-08-18T04:52:36.850Z,131.77
2022-08-18T04:54:30.011Z,138.95
2022-08-18T04:56:56.702Z,139.98
2022-08-18T04:59:23.504Z,145.18
2022-08-18T05:01:50.537Z,140.15
2022-08-18T05:04:18.038Z,136.57
2022-08-18T05:06:45.551Z,134.35
2022-08-18T05:09:16.282Z,132.77
2022-08-18T05:11:46.906Z,137.05
2022-08-18T05:14:14.017Z,138.27
2022-08-18T05:16:47.724Z,157.30
2022-08-18T05:19:16.014Z,147.40
2022-08-18T05:21:45.988Z,160.88
2022-08-18T05:24:18.929Z,161.88
2022-08-18T05:26:46.640Z,188.57
2022-08-18T05:29:18.666Z,149.27
2022-08-18T05:31:47.596Z,171.30
2022-08-18T05:34:14.600Z,168.60
2022-08-18T05:36:50.855Z,184.38
2022-08-18T05:39:54.719Z,181.02
2022-08-18T05:42:22.977Z,195.68
2022-08-18T05:44:51.360Z,190.55
2022-08-18T05:47:27.845Z,169.77
2022-08-18T05:49:57.709Z,174.60
2022-08-18T05:52:56.798Z,191.45
2022-08-18T05:55:55.613Z,230.85
2022-08-18T05:58:35.341Z,216.35
2022-08-18T06:01:11.657Z,194.85
2022-08-18T06:03:54.200Z,189.93
2022-08-18T06:06:25.484Z,197.23
2022-08-18T06:09:13.129Z,185.20
2022-08-18T06:11:40.118Z,206.13
2022-08-18T06:14:06.969Z,182.80
2022-08-18T06:17:28.816Z,196.02
2022-08-18T06:20:14.812Z,172.80
2022-08-18T06:22:56.670Z,172.55
2022-08-18T06:25:34.160Z,188.38
2022-08-18T06:28:14.174Z,192.55
2022-08-18T06:31:07.177Z,193.30
2022-08-18T06:33:56.295Z,179.82
2022-08-18T06:36:45.770Z,179.95
2022-08-18T06:39:26.343Z,176.38
2022-08-18T06:41:53.985Z,193.45
2022-08-18T06:44:42.485Z,185.90
2022-08-18T06:47:43.288Z,202.05
2022-08-18T06:50:35.563Z,176.32
2022-08-18T06:53:07.169Z,217.27
2022-08-18T06:55:54.590Z,192.95
2022-08-18T06:58:30.796Z,210.38
2022-08-18T07:01:06.080Z,208.20
2022-08-18T07:03:37.302Z,204.50
2022-08-18T07:06:11.541Z,235.15
2022-08-18T07:08:43.603Z,223.05
2022-08-18T07:11:21.698Z,221.98
2022-08-18T07:14:14.840Z,226.05
2022-08-18T07:16:59.786Z,237.45
2022-08-18T07:19:32.794Z,251.57
2022-08-18T07:22:18.867Z,231.63
2022-08-18T07:24:54.407Z,241.65
2022-08-18T07:27:43.738Z,228.55
2022-08-18T07:30:25.102Z,232.02
2022-08-18T07:33:02.401Z,227.10
2022-08-18T07:35:46.154Z,213.57
2022-08-18T07:38:42.539Z,236.20
2022-08-18T07:41:20.726Z,226.65
2022-08-18T07:44:00.959Z,243.18
2022-08-18T07:46:43.833Z,239.35
2022-08-18T07:49:22.401Z,225.63
2022-08-18T07:52:03.387Z,219.00
2022-08-18T07:54:51.143Z,193.63
2022-08-18T07:57:25.257Z,197.98
2022-08-18T07:59:52.876Z,202.15
2022-08-18T08:02:40.649Z,187.18
2022-08-18T08:05:30.179Z,189.60
2022-08-18T08:08:12.130Z,178.88
2022-08-18T08:11:07.626Z,185.90
2022-08-18T08:14:01.465Z,181.45
2022-08-18T08:16:46.564Z,167.40
2022-08-18T08:20:00.084Z,155.35
2022-08-18T08:22:39.999Z,163.57
2022-08-18T08:25:46.718Z,158.95
2022-08-18T08:28:55.864Z,142.15
2022-08-18T08:31:36.812Z,181.05
2022-08-18T08:34:50.923Z,158.15
2022-08-18T08:37:24.384Z,176.07
2022-08-18T08:40:00.293Z,157.65
2022-08-18T08:42:48.637Z,165.18
2022-08-18T08:45:27.339Z,186.27
2022-08-18T08:48:14.555Z,151.05
2022-08-18T08:50:49.094Z,161.68
2022-08-18T08:53:30.509Z,157.52
2022-08-18T08:56:03.006Z,159.82
2022-08-18T08:58:40.403Z,157.77
2022-08-18T09:01:25.409Z,168.27
2022-08-18T09:04:25.840Z,156.02
2022-08-18T09:07:02.164Z,171.18
2022-08-18T09:10:00.033Z,139.73
2022-08-18T09:12:55.018Z,163.75
2022-08-18T09:15:57.361Z,152.48
2022-08-18T09:18:51.198Z,151.75
2022-08-18T09:21:37.963Z,132.63
2022-08-18T09:26:43.541Z,146.52
2022-08-18T09:29:21.970Z,124.75
2022-08-18T09:32:11.591Z,126.22
2022-08-18T09:34:45.702Z,145.30
2022-08-18T09:37:27.904Z,133.05
2022-08-18T09:41:01.180Z,139.68
2022-08-18T09:43:25.605Z,132.18
2022-08-18T09:46:05.063Z,123.90
2022-08-18T09:48:43.254Z,120.30
2022-08-18T09:51:30.308Z,137.25
2022-08-18T09:54:13.758Z,120.32
2022-08-18T09:56:54.122Z,142.20
2022-08-18T09:59:32.526Z,127.93
2022-08-18T10:02:18.950Z,110.55
2022-08-18T10:05:19.242Z,120.15
2022-08-18T10:07:56.411Z,112.78
2022-08-18T10:11:02.341Z,126.97
2022-08-18T10:13:51.033Z,109.88
2022-08-18T10:17:13.369Z,121.43
2022-08-18T10:19:56.712Z,121.30
2022-08-18T10:22:46.118Z,114.72
2022-08-18T10:25:22.868Z,93.65
2022-08-18T10:27:54.895Z,107.55
2022-08-18T10:30:56.971Z,117.07
2022-08-18T10:33:54.998Z,112.10
2022-08-18T10:36:44.910Z,109.78
2022-08-18T10:39:39.552Z,109.40
2022-08-18T10:42:31.391Z,106.55
2022-08-18T10:45:25.436Z,100.13
2022-08-18T10:48:04.721Z,86.38
2022-08-18T10:50:52.576Z,91.78
2022-08-18T10:53:39.446Z,108.90
2022-08-18T10:59:19.458Z,95.05
2022-08-18T11:02:24.569Z,87.72
2022-08-18T11:04:58.841Z,99.03
2022-08-18T11:07:34.481Z,78.35
2022-08-18T11:10:31.905Z,74.57
2022-08-18T11:13:13.392Z,76.13
2022-08-18T11:16:03.701Z,69.90
2022-08-18T11:18:44.095Z,77.18
2022-08-18T11:21:33.124Z,83.15
2022-08-18T11:24:25.690Z,74.30
2022-08-18T11:26:57.294Z,68.20
2022-08-18T11:29:35.830Z,60.75
2022-08-18T11:32:21.915Z,50.33
2022-08-18T11:34:59.643Z,54.50
2022-08-18T11:37:48.735Z,49.35
2022-08-18T11:40:51.707Z,50.55
2022-08-18T11:43:40.697Z,46.63
2022-08-18T11:46:38.717Z,48.00
2022-08-18T11:49:33.425Z,49.25
2022-08-18T11:52:29.045Z,48.45
2022-08-18T11:55:16.803Z,51.95
2022-08-18T12:03:48.979Z,44.55
2022-08-18T12:06:26.573Z,55.13
2022-08-18T12:09:02.590Z,46.95
2022-08-18T12:11:54.895Z,47.53
2022-08-18T12:14:32.723Z,46.20
2022-08-18T12:17:02.892Z,46.45
2022-08-18T12:19:31.223Z,35.95
2022-08-18T12:22:10.981Z,40.72
2022-08-18T12:24:40.155Z,36.10
2022-08-18T12:27:12.236Z,31.95
2022-08-18T12:29:53.240Z,42.67
2022-08-18T12:32:41.535Z,41.33
2022-08-18T12:35:11.761Z,36.50
2022-08-18T12:37:58.777Z,41.08
2022-08-18T12:40:26.925Z,37.65
2022-08-18T12:42:56.045Z,37.17
2022-08-18T12:45:26.072Z,34.20
2022-08-18T12:47:54.931Z,44.92
2022-08-18T12:50:31.416Z,41.58
2022-08-18T12:53:02.586Z,34.92
2022-08-18T12:55:33.767Z,37.10
2022-08-18T12:58:04.116Z,29.45
2022-08-18T13:00:33.172Z,30.55
2022-08-18T13:03:00.925Z,29.70
2022-08-18T13:05:30.002Z,30.35
2022-08-18T13:08:04.018Z,32.95
2022-08-18T13:10:44.933Z,37.10
2022-08-18T13:13:15.495Z,28.60
2022-08-18T13:15:44.499Z,34.15
2022-08-18T13:18:28.639Z,34.17
2022-08-18T13:20:58.316Z,49.28
2022-08-18T13:23:29.597Z,42.45
2022-08-18T13:26:02.115Z,36.92
2022-08-18T13:28:33.622Z,37.92
2022-08-18T13:31:13.144Z,31.02
2022-08-18T13:36:46.231Z,29.63
2022-08-18T13:39:22.288Z,27.92
2022-08-18T13:41:53.052Z,31.42
2022-08-18T13:44:22.583Z,25.92
2022-08-18T13:46:55.958Z,30.95
2022-08-18T13:49:30.441Z,30.63
2022-08-18T13:52:00.292Z,24.10
2022-08-18T13:54:38.407Z,24.10
2022-08-18T13:57:06.706Z,25.25
2022-08-18T13:59:34.114Z,21.73
2022-08-18T14:02:05.940Z,26.60
2022-08-18T14:04:38.004Z,22.33
2022-08-18T14:07:10.977Z,22.05
2022-08-18T14:09:39.726Z,23.38
2022-08-18T14:12:16.068Z,21.17
2022-08-18T14:14:53.208Z,20.42
2022-08-18T14:17:25.074Z,23.83
2022-08-18T14:20:15.545Z,21.67
2022-08-18T14:23:14.617Z,18.02
2022-08-18T14:26:08.609Z,21.25
2022-08-18T14:28:35.702Z,22.40
2022-08-18T14:31:07.110Z,23.10
2022-08-18T14:33:51.090Z,17.45
2022-08-18T14:36:19.961Z,14.00
2022-08-18T14:38:46.967Z,18.20
2022-08-18T14:41:20.091Z,13.55
2022-08-18T14:44:12.101Z,12.93
2022-08-18T14:46:54.171Z,12.63
2022-08-18T14:49:28.813Z,14.30
2022-08-18T14:52:01.434Z,10.68
2022-08-18T14:54:30.717Z,12.63
2022-08-18T14:57:00.924Z,10.80
2022-08-18T14:59:34.431Z,10.00
2022-08-18T15:02:13.142Z,9.57
2022-08-18T15:04:56.355Z,9.13
2022-08-18T15:07:25.796Z,16.33
2022-08-18T15:10:15.095Z,8.93
2022-08-18T15:12:40.603Z,11.00
2022-08-18T15:15:13.015Z,10.75
2022-08-18T15:17:44.987Z,6.72
2022-08-18T15:20:17.559Z,8.32
2022-08-18T15:25:46.732Z,7.53
2022-08-18T15:28:21.300Z,10.48
2022-08-18T15:31:16.520Z,6.53
2022-08-18T15:33:39.349Z,7.20
2022-08-18T15:36:09.809Z,7.28
2022-08-18T15:38:40.594Z,11.57
2022-08-18T15:41:44.097Z,9.27
2022-08-18T15:44:30.221Z,8.07
2022-08-18T15:46:57.753Z,6.40
2022-08-18T15:49:24.752Z,8.80
2022-08-18T15:51:54.121Z,12.02
2022-08-18T15:54:21.762Z,6.93
2022-08-18T15:56:55.959Z,6.97
2022-08-18T15:59:27.055Z,7.35
2022-08-18T16:02:06.113Z,8.23
2022-08-18T16:04:40.998Z,8.02
2022-08-18T16:07:08.310Z,7.47
2022-08-18T16:09:37.099Z,9.20
2022-08-18T16:14:33.807Z,7.68
2022-08-18T16:17:06.034Z,6.70
2022-08-18T16:19:43.554Z,11.65
2022-08-18T16:22:11.485Z,7.10
2022-08-18T16:24:38.233Z,13.07
2022-08-18T16:27:06.615Z,5.65
2022-08-18T16:29:33.797Z,9.05
2022-08-18T16:32:00.909Z,5.88
2022-08-18T16:34:31.072Z,6.97
2022-08-18T16:36:58.145Z,6.55
2022-08-18T16:39:24.987Z,4.97
2022-08-18T16:41:51.938Z,5.32
2022-08-18T16:44:19.450Z,5.82
2022-08-18T16:46:47.653Z,8.55
2022-08-18T16:49:14.950Z,7.10
2022-08-18T16:51:44.336Z,6.35
2022-08-18T16:54:11.299Z,7.45
2022-08-18T16:59:23.391Z,8.48
2022-08-18T17:02:09.060Z,4.68
2022-08-18T17:04:36.028Z,4.03
2022-08-18T17:07:05.263Z,8.80
2022-08-18T17:09:33.774Z,6.47
2022-08-18T17:12:01.372Z,5.10
2022-08-18T17:14:30.954Z,4.60
2022-08-18T17:16:59.853Z,3.97
2022-08-18T17:19:31.864Z,7.63
2022-08-18T17:21:59.452Z,11.00
2022-08-18T17:24:31.500Z,5.43
2022-08-18T17:27:26.059Z,5.60
2022-08-18T17:29:58.276Z,6.22
2022-08-18T17:32:47.811Z,4.43
2022-08-18T17:35:40.287Z,9.68
2022-08-18T17:38:22.426Z,7.78
2022-08-18T17:40:53.821Z,6.72
2022-08-18T17:43:24.427Z,7.88
2022-08-18T17:45:58.994Z,4.30
2022-08-18T17:48:38.167Z,7.28
2022-08-18T17:51:33.337Z,5.78
2022-08-18T17:54:29.493Z,4.93
2022-08-18T17:59:54.638Z,6.50
2022-08-18T18:02:29.640Z,4.15
2022-08-18T18:05:05.165Z,8.00
2022-08-18T18:07:52.519Z,4.78
2022-08-18T18:13:34.246Z,6.75
2022-08-18T18:16:21.450Z,5.05
2022-08-18T18:18:56.503Z,5.97
2022-08-18T18:21:55.368Z,4.38
2022-08-18T18:24:23.611Z,8.48
2022-08-18T18:26:52.380Z,7.13
2022-08-18T18:29:29.313Z,7.70
2022-08-18T18:32:07.628Z,7.07
2022-08-18T18:34:42.811Z,6.70
2022-08-18T18:37:34.431Z,4.95
2022-08-18T18:40:04.975Z,6.68
2022-08-18T18:42:35.217Z,7.75
2022-08-18T18:45:13.786Z,5.13
2022-08-18T18:48:48.243Z,6.53
2022-08-18T18:51:11.905Z,10.85
2022-08-18T18:54:02.211Z,5.85
2022-08-18T18:56:37.472Z,6.68
2022-08-18T18:59:42.834Z,11.23
2022-08-18T19:02:33.768Z,4.78
2022-08-18T19:05:17.983Z,7.68
2022-08-18T19:07:59.986Z,7.75
2022-08-18T19:10:38.218Z,7.40
2022-08-18T19:13:31.800Z,11.63
2022-08-18T19:16:24.276Z,8.35
2022-08-18T19:19:36.834Z,7.97
2022-08-18T19:22:06.470Z,5.82
2022-08-18T19:24:46.982Z,9.80
2022-08-18T19:27:23.604Z,8.43
2022-08-18T19:29:55.273Z,13.13
2022-08-18T19:32:34.739Z,5.47
2022-08-18T19:35:04.288Z,11.38
2022-08-18T19:37:58.523Z,5.70
2022-08-18T19:41:20.128Z,6.95
2022-08-18T19:45:17.009Z,9.80
2022-08-18T19:55:01.480Z,11.40
2022-08-18T19:58:18.499Z,9.15
2022-08-18T20:01:49.063Z,7.57
2022-08-18T20:05:35.766Z,5.97
2022-08-18T20:08:50.726Z,10.65
2022-08-18T20:11:46.495Z,8.20
2022-08-18T20:15:13.423Z,8.70
2022-08-18T20:18:35.478Z,15.52
2022-08-18T20:25:49.207Z,7.00
2022-08-18T20:29:03.140Z,11.98
2022-08-18T20:32:04.270Z,5.80
2022-08-18T20:37:50.422Z,8.10
2022-08-18T20:41:01.865Z,15.77
2022-08-18T20:44:47.649Z,8.60
2022-08-18T20:48:36.376Z,7.88
2022-08-18T20:51:40.783Z,8.82
2022-08-18T20:54:58.501Z,7.00
2022-08-18T20:58:25.609Z,8.80
2022-08-18T21:05:16.616Z,7.00
2022-08-18T21:08:53.804Z,9.98
2022-08-18T21:11:50.076Z,7.95
2022-08-18T21:18:11.992Z,12.90
2022-08-18T21:20:39.882Z,8.48
2022-08-18T21:24:09.078Z,8.68
2022-08-18T21:26:56.870Z,10.30
2022-08-18T21:29:25.426Z,9.07
2022-08-18T21:31:53.032Z,7.22
2022-08-18T21:34:33.793Z,8.55
2022-08-18T21:40:02.944Z,7.38
2022-08-18T21:42:49.952Z,9.60
2022-08-18T21:45:32.707Z,9.10
2022-08-18T21:48:05.043Z,9.57
2022-08-18T21:50:34.182Z,6.38
2022-08-18T21:53:12.138Z,11.25
2022-08-18T21:55:43.071Z,7.47
2022-08-18T21:58:10.009Z,7.20
2022-08-18T22:00:43.052Z,8.38
2022-08-18T22:03:20.741Z,9.70
2022-08-18T22:06:00.631Z,9.85
2022-08-18T22:08:31.595Z,16.40
2022-08-18T22:12:02.709Z,7.90
2022-08-18T22:14:53.628Z,10.35
2022-08-18T22:17:49.442Z,9.43
2022-08-18T22:20:45.141Z,6.72
2022-08-18T22:23:34.011Z,9.63
2022-08-18T22:26:29.530Z,12.45
2022-08-18T22:29:20.241Z,9.48
2022-08-18T22:31:50.144Z,7.78
2022-08-18T22:34:28.425Z,8.82
2022-08-18T22:37:10.704Z,11.00
2022-08-18T22:39:49.041Z,7.18
2022-08-18T22:42:21.975Z,8.45
2022-08-18T22:45:05.584Z,9.82
2022-08-18T22:47:43.645Z,10.45
2022-08-18T22:50:22.539Z,20.92
2022-08-18T22:52:55.334Z,7.43
2022-08-18T22:55:24.179Z,9.43
2022-08-18T22:57:56.247Z,12.68
2022-08-18T23:00:27.886Z,8.77
2022-08-18T23:03:34.418Z,10.30
2022-08-18T23:06:13.016Z,13.65
2022-08-18T23:08:54.788Z,7.13
2022-08-18T23:11:24.531Z,9.63
2022-08-18T23:13:52.074Z,9.10
2022-08-18T23:16:30.405Z,8.77
2022-08-18T23:19:02.254Z,11.50
2022-08-18T23:21:35.181Z,10.68
2022-08-18T23:24:05.006Z,7.97
2022-08-18T23:26:33.954Z,7.47
2022-08-18T23:29:01.155Z,11.32
2022-08-18T23:31:28.213Z,11.07
2022-08-18T23:33:55.100Z,12.20
2022-08-18T23:36:22.333Z,10.35
2022-08-18T23:38:49.291Z,9.05
2022-08-18T23:41:16.456Z,8.57
2022-08-18T23:44:27.522Z,10.52
2022-08-18T23:47:08.687Z,10.18
2022-08-18T23:59:35.038Z,10.32
